sensor_id;sensor_type;location;lat;lon;timestamp;P1;durP1;ratioP1;P2;durP2;ratioP2
36441;SDS011;64346;50.820;16.274;2022-10-28T00:01:28;28.83;;;17.15;;
36441;SDS011;64346;50.820;16.274;2022-10-28T00:03:57;27.33;;;17.05;;
36441;SDS011;64346;50.820;16.274;2022-10-28T00:06:26;29.42;;;17.83;;
36441;SDS011;64346;50.820;16.274;2022-10-28T00:08:56;27.30;;;16.55;;
36441;SDS011;64346;50.820;16.274;2022-10-28T00:11:28;26.30;;;16.38;;
36441;SDS011;64346;50.820;16.274;2022-10-28T00:13:58;29.05;;;17.15;;
36441;SDS011;64346;50.820;16.274;2022-10-28T00:16:31;25.25;;;14.68;;
36441;SDS011;64346;50.820;16.274;2022-10-28T00:19:00;21.63;;;13.55;;
36441;SDS011;64346;50.820;16.274;2022-10-28T00:21:31;18.45;;;11.85;;
36441;SDS011;64346;50.820;16.274;2022-10-28T00:23:59;19.33;;;10.40;;
36441;SDS011;64346;50.820;16.274;2022-10-28T00:26:28;17.67;;;10.73;;
36441;SDS011;64346;50.820;16.274;2022-10-28T00:28:59;19.90;;;10.90;;
36441;SDS011;64346;50.820;16.274;2022-10-28T00:31:33;19.15;;;10.65;;
36441;SDS011;64346;50.820;16.274;2022-10-28T00:34:02;19.13;;;11.60;;
36441;SDS011;64346;50.820;16.274;2022-10-28T00:36:36;20.02;;;11.82;;
36441;SDS011;64346;50.820;16.274;2022-10-28T00:39:13;27.23;;;15.27;;
36441;SDS011;64346;50.820;16.274;2022-10-28T00:41:51;25.83;;;14.60;;
36441;SDS011;64346;50.820;16.274;2022-10-28T00:49:50;20.55;;;11.77;;
36441;SDS011;64346;50.820;16.274;2022-10-28T00:52:25;22.02;;;12.52;;
36441;SDS011;64346;50.820;16.274;2022-10-28T00:54:55;23.00;;;11.77;;
36441;SDS011;64346;50.820;16.274;2022-10-28T00:57:29;23.85;;;12.55;;
36441;SDS011;64346;50.820;16.274;2022-10-28T00:59:59;27.35;;;12.38;;
36441;SDS011;64346;50.820;16.274;2022-10-28T01:02:29;20.67;;;12.13;;
36441;SDS011;64346;50.820;16.274;2022-10-28T01:04:59;20.73;;;12.65;;
36441;SDS011;64346;50.820;16.274;2022-10-28T01:07:27;20.48;;;11.70;;
36441;SDS011;64346;50.820;16.274;2022-10-28T01:09:55;19.77;;;11.77;;
36441;SDS011;64346;50.820;16.274;2022-10-28T01:12:34;21.73;;;11.82;;
36441;SDS011;64346;50.820;16.274;2022-10-28T01:39:57;33.03;;;19.38;;
36441;SDS011;64346;50.820;16.274;2022-10-28T01:42:35;29.67;;;16.75;;
36441;SDS011;64346;50.820;16.274;2022-10-28T01:45:09;29.30;;;16.90;;
36441;SDS011;64346;50.820;16.274;2022-10-28T01:48:03;23.67;;;14.70;;
36441;SDS011;64346;50.820;16.274;2022-10-28T01:53:17;28.92;;;17.95;;
36441;SDS011;64346;50.820;16.274;2022-10-28T01:55:49;28.67;;;18.73;;
36441;SDS011;64346;50.820;16.274;2022-10-28T01:58:25;27.27;;;17.52;;
36441;SDS011;64346;50.820;16.274;2022-10-28T02:00:55;26.40;;;16.27;;
36441;SDS011;64346;50.820;16.274;2022-10-28T02:03:26;25.48;;;16.15;;
36441;SDS011;64346;50.820;16.274;2022-10-28T02:05:56;26.73;;;16.60;;
36441;SDS011;64346;50.820;16.274;2022-10-28T02:08:32;26.52;;;16.35;;
36441;SDS011;64346;50.820;16.274;2022-10-28T02:16:38;27.52;;;17.02;;
36441;SDS011;64346;50.820;16.274;2022-10-28T02:30:03;30.05;;;17.35;;
36441;SDS011;64346;50.820;16.274;2022-10-28T02:32:43;26.98;;;16.67;;
36441;SDS011;64346;50.820;16.274;2022-10-28T02:35:16;24.13;;;15.50;;
36441;SDS011;64346;50.820;16.274;2022-10-28T02:37:48;24.50;;;15.40;;
36441;SDS011;64346;50.820;16.274;2022-10-28T02:40:21;24.42;;;15.45;;
36441;SDS011;64346;50.820;16.274;2022-10-28T02:42:53;22.13;;;13.90;;
36441;SDS011;64346;50.820;16.274;2022-10-28T02:45:45;25.05;;;15.15;;
36441;SDS011;64346;50.820;16.274;2022-10-28T02:51:02;24.50;;;14.25;;
36441;SDS011;64346;50.820;16.274;2022-10-28T02:53:53;23.83;;;15.88;;
36441;SDS011;64346;50.820;16.274;2022-10-28T02:56:30;20.50;;;13.30;;
36441;SDS011;64346;50.820;16.274;2022-10-28T02:59:02;26.88;;;15.40;;
36441;SDS011;64346;50.820;16.274;2022-10-28T03:01:35;25.70;;;14.05;;
36441;SDS011;64346;50.820;16.274;2022-10-28T03:04:03;22.30;;;12.63;;
36441;SDS011;64346;50.820;16.274;2022-10-28T03:06:32;22.00;;;13.15;;
36441;SDS011;64346;50.820;16.274;2022-10-28T03:09:02;19.67;;;12.18;;
36441;SDS011;64346;50.820;16.274;2022-10-28T03:11:32;20.10;;;12.73;;
36441;SDS011;64346;50.820;16.274;2022-10-28T03:13:59;19.20;;;12.00;;
36441;SDS011;64346;50.820;16.274;2022-10-28T03:16:26;19.27;;;12.57;;
36441;SDS011;64346;50.820;16.274;2022-10-28T03:18:54;20.15;;;12.73;;
36441;SDS011;64346;50.820;16.274;2022-10-28T03:21:24;22.95;;;13.50;;
36441;SDS011;64346;50.820;16.274;2022-10-28T03:23:51;19.48;;;12.07;;
36441;SDS011;64346;50.820;16.274;2022-10-28T03:26:18;17.05;;;12.52;;
36441;SDS011;64346;50.820;16.274;2022-10-28T03:28:46;20.95;;;11.98;;
36441;SDS011;64346;50.820;16.274;2022-10-28T03:31:13;20.63;;;12.13;;
36441;SDS011;64346;50.820;16.274;2022-10-28T03:33:41;21.75;;;12.75;;
36441;SDS011;64346;50.820;16.274;2022-10-28T03:36:10;18.25;;;11.23;;
36441;SDS011;64346;50.820;16.274;2022-10-28T03:38:40;20.50;;;12.68;;
36441;SDS011;64346;50.820;16.274;2022-10-28T03:41:08;20.58;;;12.05;;
36441;SDS011;64346;50.820;16.274;2022-10-28T03:43:35;18.90;;;12.07;;
36441;SDS011;64346;50.820;16.274;2022-10-28T03:46:04;18.17;;;11.93;;
36441;SDS011;64346;50.820;16.274;2022-10-28T03:48:32;20.20;;;11.45;;
36441;SDS011;64346;50.820;16.274;2022-10-28T03:50:59;21.70;;;11.23;;
36441;SDS011;64346;50.820;16.274;2022-10-28T03:53:26;22.05;;;11.18;;
36441;SDS011;64346;50.820;16.274;2022-10-28T03:55:58;22.85;;;11.85;;
36441;SDS011;64346;50.820;16.274;2022-10-28T03:58:28;24.42;;;12.15;;
36441;SDS011;64346;50.820;16.274;2022-10-28T04:00:56;20.35;;;11.35;;
36441;SDS011;64346;50.820;16.274;2022-10-28T04:03:25;18.08;;;11.70;;
36441;SDS011;64346;50.820;16.274;2022-10-28T04:05:55;19.67;;;10.35;;
36441;SDS011;64346;50.820;16.274;2022-10-28T04:08:22;18.10;;;10.43;;
36441;SDS011;64346;50.820;16.274;2022-10-28T04:10:49;20.45;;;10.75;;
36441;SDS011;64346;50.820;16.274;2022-10-28T04:13:17;17.30;;;10.20;;
36441;SDS011;64346;50.820;16.274;2022-10-28T04:15:49;17.30;;;9.55;;
36441;SDS011;64346;50.820;16.274;2022-10-28T04:18:16;17.38;;;9.27;;
36441;SDS011;64346;50.820;16.274;2022-10-28T04:20:44;17.00;;;9.30;;
36441;SDS011;64346;50.820;16.274;2022-10-28T04:23:15;18.20;;;8.65;;
36441;SDS011;64346;50.820;16.274;2022-10-28T04:25:43;17.58;;;8.88;;
36441;SDS011;64346;50.820;16.274;2022-10-28T04:28:11;15.50;;;8.35;;
36441;SDS011;64346;50.820;16.274;2022-10-28T04:30:38;15.80;;;9.18;;
36441;SDS011;64346;50.820;16.274;2022-10-28T04:33:09;15.73;;;8.52;;
36441;SDS011;64346;50.820;16.274;2022-10-28T04:35:38;16.55;;;9.27;;
36441;SDS011;64346;50.820;16.274;2022-10-28T04:38:05;15.88;;;9.05;;
36441;SDS011;64346;50.820;16.274;2022-10-28T04:40:33;16.50;;;9.23;;
36441;SDS011;64346;50.820;16.274;2022-10-28T04:43:00;16.52;;;9.82;;
36441;SDS011;64346;50.820;16.274;2022-10-28T04:45:27;17.63;;;10.40;;
36441;SDS011;64346;50.820;16.274;2022-10-28T04:47:55;22.35;;;11.48;;
36441;SDS011;64346;50.820;16.274;2022-10-28T04:50:23;18.60;;;10.57;;
36441;SDS011;64346;50.820;16.274;2022-10-28T04:52:50;16.88;;;10.57;;
36441;SDS011;64346;50.820;16.274;2022-10-28T04:55:19;22.23;;;12.35;;
36441;SDS011;64346;50.820;16.274;2022-10-28T04:57:59;21.05;;;11.35;;
36441;SDS011;64346;50.820;16.274;2022-10-28T05:00:29;22.02;;;10.98;;
36441;SDS011;64346;50.820;16.274;2022-10-28T05:02:59;17.05;;;10.35;;
36441;SDS011;64346;50.820;16.274;2022-10-28T05:05:27;21.25;;;11.43;;
36441;SDS011;64346;50.820;16.274;2022-10-28T05:07:54;19.17;;;11.05;;
36441;SDS011;64346;50.820;16.274;2022-10-28T05:10:22;15.23;;;9.40;;
36441;SDS011;64346;50.820;16.274;2022-10-28T05:12:49;16.38;;;9.88;;
36441;SDS011;64346;50.820;16.274;2022-10-28T05:15:16;21.35;;;9.90;;
36441;SDS011;64346;50.820;16.274;2022-10-28T05:17:44;20.98;;;11.80;;
36441;SDS011;64346;50.820;16.274;2022-10-28T05:20:14;17.45;;;9.77;;
36441;SDS011;64346;50.820;16.274;2022-10-28T05:22:46;18.80;;;10.50;;
36441;SDS011;64346;50.820;16.274;2022-10-28T05:25:18;19.42;;;10.43;;
36441;SDS011;64346;50.820;16.274;2022-10-28T05:27:47;20.55;;;11.25;;
36441;SDS011;64346;50.820;16.274;2022-10-28T05:30:17;21.23;;;11.90;;
36441;SDS011;64346;50.820;16.274;2022-10-28T05:32:45;20.48;;;12.00;;
36441;SDS011;64346;50.820;16.274;2022-10-28T05:35:20;24.27;;;13.63;;
36441;SDS011;64346;50.820;16.274;2022-10-28T05:37:47;23.25;;;13.02;;
36441;SDS011;64346;50.820;16.274;2022-10-28T05:40:14;21.50;;;12.30;;
36441;SDS011;64346;50.820;16.274;2022-10-28T05:42:42;21.45;;;11.32;;
36441;SDS011;64346;50.820;16.274;2022-10-28T05:45:09;17.75;;;9.38;;
36441;SDS011;64346;50.820;16.274;2022-10-28T05:47:41;19.27;;;10.45;;
36441;SDS011;64346;50.820;16.274;2022-10-28T05:50:15;18.52;;;9.43;;
36441;SDS011;64346;50.820;16.274;2022-10-28T05:52:45;14.97;;;9.40;;
36441;SDS011;64346;50.820;16.274;2022-10-28T05:55:13;17.65;;;9.63;;
36441;SDS011;64346;50.820;16.274;2022-10-28T05:57:41;15.57;;;8.38;;
36441;SDS011;64346;50.820;16.274;2022-10-28T06:00:09;20.15;;;9.50;;
36441;SDS011;64346;50.820;16.274;2022-10-28T06:02:39;15.63;;;7.88;;
36441;SDS011;64346;50.820;16.274;2022-10-28T06:05:10;16.45;;;8.00;;
36441;SDS011;64346;50.820;16.274;2022-10-28T06:07:40;19.45;;;9.40;;
36441;SDS011;64346;50.820;16.274;2022-10-28T06:10:08;15.13;;;8.52;;
36441;SDS011;64346;50.820;16.274;2022-10-28T06:12:38;14.77;;;7.75;;
36441;SDS011;64346;50.820;16.274;2022-10-28T06:15:05;18.55;;;7.72;;
36441;SDS011;64346;50.820;16.274;2022-10-28T06:17:33;11.63;;;5.47;;
36441;SDS011;64346;50.820;16.274;2022-10-28T06:20:00;14.90;;;6.72;;
36441;SDS011;64346;50.820;16.274;2022-10-28T06:22:29;11.18;;;5.90;;
36441;SDS011;64346;50.820;16.274;2022-10-28T06:25:00;12.95;;;6.82;;
36441;SDS011;64346;50.820;16.274;2022-10-28T06:27:31;14.07;;;6.32;;
36441;SDS011;64346;50.820;16.274;2022-10-28T06:30:00;15.18;;;6.20;;
36441;SDS011;64346;50.820;16.274;2022-10-28T06:32:28;12.55;;;5.53;;
36441;SDS011;64346;50.820;16.274;2022-10-28T06:34:55;14.05;;;6.10;;
36441;SDS011;64346;50.820;16.274;2022-10-28T06:37:22;11.52;;;6.15;;
36441;SDS011;64346;50.820;16.274;2022-10-28T06:39:49;12.68;;;5.53;;
36441;SDS011;64346;50.820;16.274;2022-10-28T06:42:17;10.88;;;5.68;;
36441;SDS011;64346;50.820;16.274;2022-10-28T06:44:47;10.13;;;4.80;;
36441;SDS011;64346;50.820;16.274;2022-10-28T06:47:19;10.40;;;4.78;;
36441;SDS011;64346;50.820;16.274;2022-10-28T06:49:46;11.55;;;5.03;;
36441;SDS011;64346;50.820;16.274;2022-10-28T06:52:18;16.17;;;5.78;;
36441;SDS011;64346;50.820;16.274;2022-10-28T06:54:45;14.18;;;5.80;;
36441;SDS011;64346;50.820;16.274;2022-10-28T06:57:13;17.00;;;6.80;;
36441;SDS011;64346;50.820;16.274;2022-10-28T06:59:43;18.55;;;7.68;;
36441;SDS011;64346;50.820;16.274;2022-10-28T07:02:18;15.27;;;6.60;;
36441;SDS011;64346;50.820;16.274;2022-10-28T07:04:45;14.48;;;6.00;;
36441;SDS011;64346;50.820;16.274;2022-10-28T07:07:15;14.18;;;5.70;;
36441;SDS011;64346;50.820;16.274;2022-10-28T07:09:45;14.05;;;6.20;;
36441;SDS011;64346;50.820;16.274;2022-10-28T07:12:12;12.25;;;5.25;;
36441;SDS011;64346;50.820;16.274;2022-10-28T07:14:39;14.13;;;6.05;;
36441;SDS011;64346;50.820;16.274;2022-10-28T07:17:07;13.93;;;5.53;;
36441;SDS011;64346;50.820;16.274;2022-10-28T07:19:34;13.13;;;5.75;;
36441;SDS011;64346;50.820;16.274;2022-10-28T07:22:01;15.43;;;5.30;;
36441;SDS011;64346;50.820;16.274;2022-10-28T07:24:31;13.27;;;5.07;;
36441;SDS011;64346;50.820;16.274;2022-10-28T07:26:59;12.45;;;6.22;;
36441;SDS011;64346;50.820;16.274;2022-10-28T07:29:26;13.63;;;6.15;;
36441;SDS011;64346;50.820;16.274;2022-10-28T07:31:56;11.75;;;5.70;;
36441;SDS011;64346;50.820;16.274;2022-10-28T07:34:24;12.68;;;5.85;;
36441;SDS011;64346;50.820;16.274;2022-10-28T07:36:53;14.38;;;6.15;;
36441;SDS011;64346;50.820;16.274;2022-10-28T07:39:25;13.60;;;5.68;;
36441;SDS011;64346;50.820;16.274;2022-10-28T07:41:53;13.32;;;5.93;;
36441;SDS011;64346;50.820;16.274;2022-10-28T07:44:21;12.23;;;6.60;;
36441;SDS011;64346;50.820;16.274;2022-10-28T07:46:48;13.38;;;6.53;;
36441;SDS011;64346;50.820;16.274;2022-10-28T07:49:21;13.75;;;5.93;;
36441;SDS011;64346;50.820;16.274;2022-10-28T07:51:51;13.35;;;5.45;;
36441;SDS011;64346;50.820;16.274;2022-10-28T07:54:18;11.80;;;5.50;;
36441;SDS011;64346;50.820;16.274;2022-10-28T07:56:45;11.40;;;4.82;;
36441;SDS011;64346;50.820;16.274;2022-10-28T07:59:15;11.02;;;5.20;;
36441;SDS011;64346;50.820;16.274;2022-10-28T08:01:43;13.27;;;5.50;;
36441;SDS011;64346;50.820;16.274;2022-10-28T08:04:10;12.40;;;5.72;;
36441;SDS011;64346;50.820;16.274;2022-10-28T08:06:37;8.98;;;3.55;;
36441;SDS011;64346;50.820;16.274;2022-10-28T08:09:05;9.70;;;4.05;;
36441;SDS011;64346;50.820;16.274;2022-10-28T08:11:32;8.30;;;3.53;;
36441;SDS011;64346;50.820;16.274;2022-10-28T08:14:00;11.77;;;4.82;;
36441;SDS011;64346;50.820;16.274;2022-10-28T08:16:28;8.52;;;4.43;;
36441;SDS011;64346;50.820;16.274;2022-10-28T08:18:55;9.82;;;3.63;;
36441;SDS011;64346;50.820;16.274;2022-10-28T08:21:23;8.10;;;3.20;;
36441;SDS011;64346;50.820;16.274;2022-10-28T08:23:50;6.63;;;3.28;;
36441;SDS011;64346;50.820;16.274;2022-10-28T08:26:21;8.45;;;3.67;;
36441;SDS011;64346;50.820;16.274;2022-10-28T08:28:51;10.13;;;3.90;;
36441;SDS011;64346;50.820;16.274;2022-10-28T08:31:21;12.63;;;5.15;;
36441;SDS011;64346;50.820;16.274;2022-10-28T08:33:48;8.02;;;3.70;;
36441;SDS011;64346;50.820;16.274;2022-10-28T08:36:15;12.32;;;4.00;;
36441;SDS011;64346;50.820;16.274;2022-10-28T08:38:45;9.40;;;4.22;;
36441;SDS011;64346;50.820;16.274;2022-10-28T08:49:15;10.63;;;4.47;;
36441;SDS011;64346;50.820;16.274;2022-10-28T08:52:10;9.57;;;3.50;;
36441;SDS011;64346;50.820;16.274;2022-10-28T08:55:04;10.55;;;4.65;;
36441;SDS011;64346;50.820;16.274;2022-10-28T08:57:42;10.55;;;5.20;;
36441;SDS011;64346;50.820;16.274;2022-10-28T09:02:54;7.38;;;3.85;;
36441;SDS011;64346;50.820;16.274;2022-10-28T09:05:46;11.07;;;3.45;;
36441;SDS011;64346;50.820;16.274;2022-10-28T09:08:19;8.88;;;3.83;;
36441;SDS011;64346;50.820;16.274;2022-10-28T09:10:55;7.85;;;3.15;;
36441;SDS011;64346;50.820;16.274;2022-10-28T09:13:35;7.50;;;3.15;;
36441;SDS011;64346;50.820;16.274;2022-10-28T09:19:03;7.40;;;3.50;;
36441;SDS011;64346;50.820;16.274;2022-10-28T09:30:59;6.95;;;2.63;;
36441;SDS011;64346;50.820;16.274;2022-10-28T09:33:59;6.50;;;2.30;;
36441;SDS011;64346;50.820;16.274;2022-10-28T09:36:31;7.35;;;2.70;;
36441;SDS011;64346;50.820;16.274;2022-10-28T09:39:08;5.95;;;2.55;;
36441;SDS011;64346;50.820;16.274;2022-10-28T09:41:43;5.97;;;2.40;;
36441;SDS011;64346;50.820;16.274;2022-10-28T09:50:26;10.63;;;3.25;;
36441;SDS011;64346;50.820;16.274;2022-10-28T09:53:04;6.82;;;2.97;;
36441;SDS011;64346;50.820;16.274;2022-10-28T09:55:42;9.13;;;4.35;;
36441;SDS011;64346;50.820;16.274;2022-10-28T09:58:10;9.45;;;3.80;;
36441;SDS011;64346;50.820;16.274;2022-10-28T10:00:38;6.80;;;3.17;;
36441;SDS011;64346;50.820;16.274;2022-10-28T10:03:06;9.57;;;3.50;;
36441;SDS011;64346;50.820;16.274;2022-10-28T10:05:36;8.07;;;3.15;;
36441;SDS011;64346;50.820;16.274;2022-10-28T10:08:10;9.95;;;2.80;;
36441;SDS011;64346;50.820;16.274;2022-10-28T10:10:43;7.57;;;2.10;;
36441;SDS011;64346;50.820;16.274;2022-10-28T10:13:28;8.35;;;2.42;;
36441;SDS011;64346;50.820;16.274;2022-10-28T10:16:03;7.63;;;3.10;;
36441;SDS011;64346;50.820;16.274;2022-10-28T10:18:44;5.22;;;2.30;;
36441;SDS011;64346;50.820;16.274;2022-10-28T10:21:19;5.07;;;2.17;;
36441;SDS011;64346;50.820;16.274;2022-10-28T10:24:22;7.95;;;2.47;;
36441;SDS011;64346;50.820;16.274;2022-10-28T10:27:01;6.68;;;2.28;;
36441;SDS011;64346;50.820;16.274;2022-10-28T10:29:38;7.00;;;2.70;;
36441;SDS011;64346;50.820;16.274;2022-10-28T10:32:15;6.47;;;2.28;;
36441;SDS011;64346;50.820;16.274;2022-10-28T10:34:44;35.53;;;7.45;;
36441;SDS011;64346;50.820;16.274;2022-10-28T10:37:24;18.42;;;11.75;;
36441;SDS011;64346;50.820;16.274;2022-10-28T10:39:57;6.30;;;2.45;;
36441;SDS011;64346;50.820;16.274;2022-10-28T10:45:33;6.47;;;2.47;;
36441;SDS011;64346;50.820;16.274;2022-10-28T10:48:12;6.43;;;2.78;;
36441;SDS011;64346;50.820;16.274;2022-10-28T10:50:41;5.05;;;2.40;;
36441;SDS011;64346;50.820;16.274;2022-10-28T10:53:19;5.22;;;2.28;;
36441;SDS011;64346;50.820;16.274;2022-10-28T10:55:55;6.75;;;2.67;;
36441;SDS011;64346;50.820;16.274;2022-10-28T10:58:25;6.45;;;2.75;;
36441;SDS011;64346;50.820;16.274;2022-10-28T11:00:56;6.88;;;2.58;;
36441;SDS011;64346;50.820;16.274;2022-10-28T11:03:32;8.43;;;2.80;;
36441;SDS011;64346;50.820;16.274;2022-10-28T11:06:05;8.02;;;3.13;;
36441;SDS011;64346;50.820;16.274;2022-10-28T11:08:54;6.43;;;2.50;;
36441;SDS011;64346;50.820;16.274;2022-10-28T11:11:37;8.45;;;3.33;;
36441;SDS011;64346;50.820;16.274;2022-10-28T11:16:52;7.03;;;2.70;;
36441;SDS011;64346;50.820;16.274;2022-10-28T11:19:32;6.10;;;2.70;;
36441;SDS011;64346;50.820;16.274;2022-10-28T11:30:18;8.45;;;3.22;;
36441;SDS011;64346;50.820;16.274;2022-10-28T11:38:46;8.77;;;3.30;;
36441;SDS011;64346;50.820;16.274;2022-10-28T11:44:31;7.78;;;3.08;;
36441;SDS011;64346;50.820;16.274;2022-10-28T11:50:12;5.97;;;2.60;;
36441;SDS011;64346;50.820;16.274;2022-10-28T11:52:58;7.00;;;2.67;;
36441;SDS011;64346;50.820;16.274;2022-10-28T11:55:50;6.20;;;2.70;;
36441;SDS011;64346;50.820;16.274;2022-10-28T11:58:44;8.35;;;3.00;;
36441;SDS011;64346;50.820;16.274;2022-10-28T12:06:56;9.48;;;2.75;;
36441;SDS011;64346;50.820;16.274;2022-10-28T12:20:45;6.57;;;2.60;;
36441;SDS011;64346;50.820;16.274;2022-10-28T12:23:23;7.25;;;2.40;;
36441;SDS011;64346;50.820;16.274;2022-10-28T12:25:53;9.20;;;2.92;;
36441;SDS011;64346;50.820;16.274;2022-10-28T12:38:45;7.53;;;2.95;;
36441;SDS011;64346;50.820;16.274;2022-10-28T12:41:39;7.18;;;3.28;;
36441;SDS011;64346;50.820;16.274;2022-10-28T12:44:27;8.20;;;2.92;;
36441;SDS011;64346;50.820;16.274;2022-10-28T12:55:41;8.63;;;3.55;;
36441;SDS011;64346;50.820;16.274;2022-10-28T12:58:19;8.15;;;3.13;;
36441;SDS011;64346;50.820;16.274;2022-10-28T13:00:53;8.43;;;3.83;;
36441;SDS011;64346;50.820;16.274;2022-10-28T13:03:41;9.23;;;3.58;;
36441;SDS011;64346;50.820;16.274;2022-10-28T13:17:42;7.10;;;3.67;;
36441;SDS011;64346;50.820;16.274;2022-10-28T13:20:45;21.30;;;9.90;;
36441;SDS011;64346;50.820;16.274;2022-10-28T13:26:02;64.50;;;36.63;;
36441;SDS011;64346;50.820;16.274;2022-10-28T13:28:40;14.50;;;6.13;;
36441;SDS011;64346;50.820;16.274;2022-10-28T13:31:12;23.35;;;11.57;;
36441;SDS011;64346;50.820;16.274;2022-10-28T13:33:51;14.82;;;5.80;;
36441;SDS011;64346;50.820;16.274;2022-10-28T13:36:26;12.13;;;4.38;;
36441;SDS011;64346;50.820;16.274;2022-10-28T13:38:59;12.52;;;5.80;;
36441;SDS011;64346;50.820;16.274;2022-10-28T13:41:36;10.57;;;5.05;;
36441;SDS011;64346;50.820;16.274;2022-10-28T13:52:03;17.60;;;7.68;;
36441;SDS011;64346;50.820;16.274;2022-10-28T14:00:05;11.93;;;4.10;;
36441;SDS011;64346;50.820;16.274;2022-10-28T14:02:55;10.02;;;4.53;;
36441;SDS011;64346;50.820;16.274;2022-10-28T14:08:02;10.57;;;4.80;;
36441;SDS011;64346;50.820;16.274;2022-10-28T14:10:35;11.30;;;4.63;;
36441;SDS011;64346;50.820;16.274;2022-10-28T14:13:17;10.13;;;5.10;;
36441;SDS011;64346;50.820;16.274;2022-10-28T14:15:47;9.85;;;4.20;;
36441;SDS011;64346;50.820;16.274;2022-10-28T14:21:03;9.95;;;4.43;;
36441;SDS011;64346;50.820;16.274;2022-10-28T14:25:59;9.52;;;3.67;;
36441;SDS011;64346;50.820;16.274;2022-10-28T14:41:37;12.13;;;3.97;;
36441;SDS011;64346;50.820;16.274;2022-10-28T14:50:15;10.00;;;3.75;;
36441;SDS011;64346;50.820;16.274;2022-10-28T14:52:48;10.75;;;4.07;;
36441;SDS011;64346;50.820;16.274;2022-10-28T14:55:24;12.70;;;5.18;;
36441;SDS011;64346;50.820;16.274;2022-10-28T14:58:10;10.52;;;3.90;;
36441;SDS011;64346;50.820;16.274;2022-10-28T15:00:57;10.38;;;4.22;;
36441;SDS011;64346;50.820;16.274;2022-10-28T15:03:58;15.88;;;6.38;;
36441;SDS011;64346;50.820;16.274;2022-10-28T15:06:31;10.40;;;4.50;;
36441;SDS011;64346;50.820;16.274;2022-10-28T15:09:03;13.00;;;4.32;;
36441;SDS011;64346;50.820;16.274;2022-10-28T15:11:31;8.15;;;3.63;;
36441;SDS011;64346;50.820;16.274;2022-10-28T15:16:52;9.48;;;4.20;;
36441;SDS011;64346;50.820;16.274;2022-10-28T15:19:21;11.20;;;4.13;;
36441;SDS011;64346;50.820;16.274;2022-10-28T15:22:00;12.90;;;4.72;;
36441;SDS011;64346;50.820;16.274;2022-10-28T15:24:31;12.02;;;4.18;;
36441;SDS011;64346;50.820;16.274;2022-10-28T15:26:58;12.25;;;5.05;;
36441;SDS011;64346;50.820;16.274;2022-10-28T15:29:26;10.55;;;4.38;;
36441;SDS011;64346;50.820;16.274;2022-10-28T15:34:40;12.63;;;5.13;;
36441;SDS011;64346;50.820;16.274;2022-10-28T15:37:08;13.07;;;5.22;;
36441;SDS011;64346;50.820;16.274;2022-10-28T15:39:36;12.98;;;4.65;;
36441;SDS011;64346;50.820;16.274;2022-10-28T15:42:08;14.50;;;5.38;;
36441;SDS011;64346;50.820;16.274;2022-10-28T15:44:54;14.68;;;5.20;;
36441;SDS011;64346;50.820;16.274;2022-10-28T15:52:43;14.93;;;5.18;;
36441;SDS011;64346;50.820;16.274;2022-10-28T15:58:03;12.30;;;5.32;;
36441;SDS011;64346;50.820;16.274;2022-10-28T16:00:59;12.02;;;5.10;;
36441;SDS011;64346;50.820;16.274;2022-10-28T16:11:27;11.48;;;5.43;;
36441;SDS011;64346;50.820;16.274;2022-10-28T16:13:55;13.85;;;5.03;;
36441;SDS011;64346;50.820;16.274;2022-10-28T16:16:24;11.30;;;5.30;;
36441;SDS011;64346;50.820;16.274;2022-10-28T16:19:00;12.25;;;6.18;;
36441;SDS011;64346;50.820;16.274;2022-10-28T16:21:28;17.35;;;6.57;;
36441;SDS011;64346;50.820;16.274;2022-10-28T16:23:57;13.98;;;5.43;;
36441;SDS011;64346;50.820;16.274;2022-10-28T16:26:29;12.27;;;4.43;;
36441;SDS011;64346;50.820;16.274;2022-10-28T16:28:57;9.77;;;4.78;;
36441;SDS011;64346;50.820;16.274;2022-10-28T16:31:25;10.10;;;4.90;;
36441;SDS011;64346;50.820;16.274;2022-10-28T16:33:56;13.30;;;5.00;;
36441;SDS011;64346;50.820;16.274;2022-10-28T16:36:24;15.18;;;4.85;;
36441;SDS011;64346;50.820;16.274;2022-10-28T16:38:53;11.68;;;5.30;;
36441;SDS011;64346;50.820;16.274;2022-10-28T16:41:21;11.85;;;5.18;;
36441;SDS011;64346;50.820;16.274;2022-10-28T16:43:49;12.63;;;5.15;;
36441;SDS011;64346;50.820;16.274;2022-10-28T16:46:22;12.85;;;5.00;;
36441;SDS011;64346;50.820;16.274;2022-10-28T16:48:49;19.58;;;7.85;;
36441;SDS011;64346;50.820;16.274;2022-10-28T16:51:19;15.10;;;4.57;;
36441;SDS011;64346;50.820;16.274;2022-10-28T16:53:47;15.40;;;5.57;;
36441;SDS011;64346;50.820;16.274;2022-10-28T16:56:17;11.48;;;5.20;;
36441;SDS011;64346;50.820;16.274;2022-10-28T16:58:44;11.70;;;4.78;;
36441;SDS011;64346;50.820;16.274;2022-10-28T17:01:13;11.50;;;4.68;;
36441;SDS011;64346;50.820;16.274;2022-10-28T17:03:43;12.68;;;5.50;;
36441;SDS011;64346;50.820;16.274;2022-10-28T17:06:10;15.85;;;6.30;;
36441;SDS011;64346;50.820;16.274;2022-10-28T17:08:37;11.65;;;5.07;;
36441;SDS011;64346;50.820;16.274;2022-10-28T17:11:25;14.10;;;5.85;;
36441;SDS011;64346;50.820;16.274;2022-10-28T17:13:52;15.98;;;7.72;;
36441;SDS011;64346;50.820;16.274;2022-10-28T17:16:19;15.90;;;6.50;;
36441;SDS011;64346;50.820;16.274;2022-10-28T17:18:49;13.60;;;7.03;;
36441;SDS011;64346;50.820;16.274;2022-10-28T17:21:17;11.38;;;5.82;;
36441;SDS011;64346;50.820;16.274;2022-10-28T17:23:44;15.07;;;6.25;;
36441;SDS011;64346;50.820;16.274;2022-10-28T17:26:12;12.77;;;5.57;;
36441;SDS011;64346;50.820;16.274;2022-10-28T17:28:39;11.02;;;5.47;;
36441;SDS011;64346;50.820;16.274;2022-10-28T17:31:06;13.57;;;5.95;;
36441;SDS011;64346;50.820;16.274;2022-10-28T17:33:34;12.65;;;5.47;;
36441;SDS011;64346;50.820;16.274;2022-10-28T17:36:03;13.80;;;5.93;;
36441;SDS011;64346;50.820;16.274;2022-10-28T17:38:32;16.23;;;6.88;;
36441;SDS011;64346;50.820;16.274;2022-10-28T17:40:59;14.18;;;6.93;;
36441;SDS011;64346;50.820;16.274;2022-10-28T17:43:27;16.60;;;7.40;;
36441;SDS011;64346;50.820;16.274;2022-10-28T17:46:02;14.25;;;6.80;;
36441;SDS011;64346;50.820;16.274;2022-10-28T17:48:32;15.13;;;6.38;;
36441;SDS011;64346;50.820;16.274;2022-10-28T17:51:00;15.10;;;6.38;;
36441;SDS011;64346;50.820;16.274;2022-10-28T17:53:29;16.33;;;7.05;;
36441;SDS011;64346;50.820;16.274;2022-10-28T17:55:57;16.33;;;8.02;;
36441;SDS011;64346;50.820;16.274;2022-10-28T17:58:26;15.75;;;6.63;;
36441;SDS011;64346;50.820;16.274;2022-10-28T18:00:54;16.50;;;6.10;;
36441;SDS011;64346;50.820;16.274;2022-10-28T18:03:26;14.00;;;6.63;;
36441;SDS011;64346;50.820;16.274;2022-10-28T18:06:00;15.73;;;6.80;;
36441;SDS011;64346;50.820;16.274;2022-10-28T18:08:34;14.95;;;6.95;;
36441;SDS011;64346;50.820;16.274;2022-10-28T18:11:03;27.33;;;12.55;;
36441;SDS011;64346;50.820;16.274;2022-10-28T18:13:37;18.20;;;7.47;;
36441;SDS011;64346;50.820;16.274;2022-10-28T18:16:09;16.83;;;7.73;;
36441;SDS011;64346;50.820;16.274;2022-10-28T18:18:37;16.42;;;7.38;;
36441;SDS011;64346;50.820;16.274;2022-10-28T18:21:09;17.27;;;6.72;;
36441;SDS011;64346;50.820;16.274;2022-10-28T18:23:39;17.40;;;6.90;;
36441;SDS011;64346;50.820;16.274;2022-10-28T18:26:10;14.52;;;6.07;;
36441;SDS011;64346;50.820;16.274;2022-10-28T18:28:42;15.70;;;6.75;;